createdAt,value
2023-02-06T00:04:56.927Z,67.23
2023-02-06T00:09:58.598Z,66.94
2023-02-06T00:15:00.261Z,67.42
2023-02-06T00:20:02.354Z,67.99
2023-02-06T00:25:04.652Z,67.49
2023-02-06T00:30:06.815Z,67.70
2023-02-06T00:35:08.803Z,67.97
2023-02-06T00:40:10.981Z,67.98
2023-02-06T00:45:12.700Z,67.67
2023-02-06T00:50:14.441Z,68.63
2023-02-06T00:55:16.236Z,68.65
2023-02-06T01:00:18.279Z,67.89
2023-02-06T01:05:20.088Z,67.81
2023-02-06T01:10:21.856Z,68.74
2023-02-06T01:15:23.518Z,68.06
2023-02-06T01:20:25.285Z,68.19
2023-02-06T01:25:27.029Z,69.05
2023-02-06T01:30:28.726Z,67.80
2023-02-06T01:35:30.424Z,67.89
2023-02-06T01:40:32.100Z,67.84
2023-02-06T01:45:53.108Z,68.11
2023-02-06T01:50:57.438Z,69.11
2023-02-06T01:56:02.000Z,68.47
2023-02-06T02:01:05.370Z,69.17
2023-02-06T02:06:11.362Z,69.25
2023-02-06T02:11:20.342Z,69.00
2023-02-06T02:17:00.734Z,67.96
2023-02-06T02:22:34.331Z,68.64
2023-02-06T02:27:55.533Z,68.27
2023-02-06T02:33:06.143Z,68.59
2023-02-06T02:38:13.785Z,67.86
2023-02-06T02:43:22.738Z,67.74
2023-02-06T02:48:30.146Z,68.15
2023-02-06T02:53:32.303Z,68.56
2023-02-06T02:58:35.782Z,68.96
2023-02-06T03:03:42.749Z,68.08
2023-02-06T03:09:03.126Z,67.82
2023-02-06T03:14:39.387Z,67.94
2023-02-06T03:19:48.559Z,67.78
2023-02-06T03:24:52.609Z,69.80
2023-02-06T03:29:56.158Z,69.25
2023-02-06T03:35:19.983Z,69.00
2023-02-06T03:40:21.944Z,68.00
2023-02-06T03:45:29.131Z,67.78
2023-02-06T03:50:34.883Z,68.87
2023-02-06T03:55:38.661Z,68.21
2023-02-06T04:00:42.958Z,68.53
2023-02-06T04:05:44.637Z,68.16
2023-02-06T04:10:46.266Z,68.50
2023-02-06T04:15:47.917Z,69.32
2023-02-06T04:20:52.243Z,68.61
2023-02-06T04:25:53.992Z,69.11
2023-02-06T04:30:55.831Z,69.14
2023-02-06T04:35:57.545Z,69.60
2023-02-06T04:41:06.090Z,68.35
2023-02-06T04:46:07.793Z,68.66
2023-02-06T04:51:09.818Z,67.74
2023-02-06T04:56:12.870Z,67.92
2023-02-06T05:01:16.900Z,68.34
2023-02-06T05:06:18.669Z,69.44
2023-02-06T05:11:20.296Z,70.17
2023-02-06T05:16:22.050Z,69.10
2023-02-06T05:21:25.222Z,70.03
2023-02-06T05:26:26.903Z,69.53
2023-02-06T05:31:29.133Z,69.04
2023-02-06T05:36:30.837Z,69.47
2023-02-06T05:41:32.726Z,68.68
2023-02-06T05:46:34.492Z,69.38
2023-02-06T05:51:36.211Z,69.61
2023-02-06T05:56:37.916Z,70.03
2023-02-06T06:01:39.564Z,69.93
2023-02-06T06:06:41.879Z,70.28
2023-02-06T06:11:43.791Z,70.55
2023-02-06T06:16:45.474Z,70.74
2023-02-06T06:21:47.137Z,70.06
2023-02-06T06:26:48.810Z,70.37
2023-02-06T06:31:50.561Z,70.36
2023-02-06T06:36:52.294Z,70.83
2023-02-06T06:41:54.173Z,70.55
2023-02-06T06:46:55.851Z,70.78
2023-02-06T06:51:57.526Z,70.61
2023-02-06T06:56:59.172Z,71.34
2023-02-06T07:02:00.785Z,71.94
2023-02-06T07:07:02.502Z,72.00
2023-02-06T07:12:05.104Z,71.99
2023-02-06T07:17:06.830Z,71.58
2023-02-06T07:22:08.513Z,71.86
2023-02-06T07:27:10.605Z,71.33
2023-02-06T07:32:12.340Z,71.68
2023-02-06T07:37:14.168Z,70.39
2023-02-06T07:42:15.842Z,71.43
2023-02-06T07:47:17.703Z,70.25
2023-02-06T07:52:22.058Z,71.19
2023-02-06T07:57:23.696Z,70.65
2023-02-06T08:02:25.449Z,71.19
2023-02-06T08:07:27.304Z,71.04
2023-02-06T08:12:32.019Z,69.19
2023-02-06T08:17:33.752Z,69.67
2023-02-06T08:22:35.412Z,68.93
2023-02-06T08:27:37.198Z,69.08
2023-02-06T08:32:39.418Z,69.86
2023-02-06T08:37:41.092Z,68.08
2023-02-06T08:42:42.788Z,69.84
2023-02-06T08:47:44.392Z,67.79
2023-02-06T08:52:46.102Z,68.47
2023-02-06T08:57:47.735Z,67.67
2023-02-06T09:02:49.524Z,67.64
2023-02-06T09:07:51.245Z,65.92
2023-02-06T09:12:54.397Z,65.29
2023-02-06T09:17:56.104Z,65.23
2023-02-06T09:22:57.864Z,64.98
2023-02-06T09:27:59.582Z,64.38
2023-02-06T09:33:01.338Z,64.29
2023-02-06T09:38:03.155Z,64.19
2023-02-06T09:43:05.066Z,64.54
2023-02-06T09:48:19.673Z,64.65
2023-02-06T09:53:30.567Z,64.10
2023-02-06T09:58:53.898Z,63.91
2023-02-06T10:04:01.945Z,64.21
2023-02-06T10:09:11.644Z,63.38
2023-02-06T10:14:22.374Z,63.13
2023-02-06T10:19:48.262Z,63.54
2023-02-06T10:25:15.287Z,62.14
2023-02-06T10:30:20.753Z,61.52
2023-02-06T10:35:51.811Z,61.71
2023-02-06T10:41:18.682Z,62.14
2023-02-06T10:46:26.302Z,62.13
2023-02-06T10:51:38.614Z,61.40
2023-02-06T10:56:46.844Z,61.35
2023-02-06T11:01:52.177Z,61.51
2023-02-06T11:07:01.054Z,61.92
2023-02-06T11:12:03.828Z,61.39
2023-02-06T11:17:05.549Z,61.57
2023-02-06T11:22:07.401Z,61.85
2023-02-06T11:27:20.682Z,61.69
2023-02-06T11:32:40.836Z,61.46
2023-02-06T11:37:42.765Z,60.98
2023-02-06T11:42:46.112Z,61.04
2023-02-06T11:47:47.784Z,60.34
2023-02-06T11:52:49.937Z,61.18
2023-02-06T11:58:23.196Z,59.64
2023-02-06T12:03:31.213Z,59.25
2023-02-06T12:08:55.058Z,60.06
2023-02-06T12:14:03.622Z,60.10
2023-02-06T12:19:12.068Z,59.86
2023-02-06T12:24:36.159Z,59.96
2023-02-06T12:29:43.659Z,60.33
2023-02-06T12:35:00.636Z,58.84
2023-02-06T12:40:02.486Z,59.20
2023-02-06T12:45:25.268Z,59.29
2023-02-06T12:50:55.391Z,58.61
2023-02-06T12:56:29.501Z,58.69
2023-02-06T13:01:58.287Z,59.42
2023-02-06T13:07:05.279Z,58.88
2023-02-06T13:12:13.843Z,58.75
2023-02-06T13:17:20.695Z,58.49
2023-02-06T13:22:36.868Z,57.65
2023-02-06T13:27:40.084Z,58.41
2023-02-06T13:32:45.419Z,58.08
2023-02-06T13:37:48.562Z,58.42
2023-02-06T13:43:11.285Z,57.11
2023-02-06T13:48:27.873Z,57.90
2023-02-06T13:53:48.161Z,56.93
2023-02-06T13:58:56.056Z,56.86
2023-02-06T14:03:58.470Z,56.65
2023-02-06T14:09:30.746Z,56.10
2023-02-06T14:14:47.718Z,56.75
2023-02-06T14:20:03.487Z,56.83
2023-02-06T14:25:05.471Z,57.09
2023-02-06T14:30:22.306Z,57.52
2023-02-06T14:35:42.784Z,57.50
2023-02-06T14:40:49.336Z,57.67
2023-02-06T14:46:06.779Z,57.90
2023-02-06T14:51:25.378Z,57.68
2023-02-06T14:56:33.291Z,57.96
2023-02-06T15:01:35.113Z,57.21
2023-02-06T15:06:40.115Z,57.76
2023-02-06T15:11:41.860Z,58.15
2023-02-06T15:16:48.311Z,58.02
2023-02-06T15:21:51.365Z,58.27
2023-02-06T15:27:11.244Z,58.38
2023-02-06T15:32:35.490Z,57.81
2023-02-06T15:37:37.190Z,58.08
2023-02-06T15:42:39.074Z,58.00
2023-02-06T15:47:42.466Z,58.59
2023-02-06T15:52:47.378Z,58.83
2023-02-06T15:57:49.994Z,58.50
2023-02-06T16:02:54.946Z,58.91
2023-02-06T16:07:57.062Z,59.04
2023-02-06T16:13:01.828Z,59.25
2023-02-06T16:18:24.813Z,59.79
2023-02-06T16:23:29.454Z,60.28
2023-02-06T16:28:31.479Z,60.72
2023-02-06T16:33:36.057Z,59.79
2023-02-06T16:38:37.675Z,60.94
2023-02-06T16:43:39.353Z,61.41
2023-02-06T16:48:41.242Z,62.29
2023-02-06T16:53:44.232Z,63.27
2023-02-06T16:58:46.868Z,62.99
2023-02-06T17:03:51.264Z,62.77
2023-02-06T17:08:55.839Z,63.08
2023-02-06T17:13:57.572Z,63.02
2023-02-06T17:18:59.687Z,63.29
2023-02-06T17:24:01.977Z,62.75
2023-02-06T17:29:04.021Z,63.08
2023-02-06T17:34:05.878Z,63.39
2023-02-06T17:39:07.848Z,63.41
2023-02-06T17:44:11.787Z,63.23
2023-02-06T17:49:14.807Z,64.26
2023-02-06T17:54:16.743Z,64.56
2023-02-06T17:59:18.421Z,64.31
2023-02-06T18:04:21.459Z,65.20
2023-02-06T18:09:23.221Z,64.28
2023-02-06T18:14:25.238Z,65.10
2023-02-06T18:19:29.113Z,65.89
2023-02-06T18:24:31.387Z,66.10
2023-02-06T18:29:48.452Z,66.24
2023-02-06T18:34:52.269Z,67.25
2023-02-06T18:39:58.139Z,66.89
2023-02-06T18:45:02.118Z,66.38
2023-02-06T18:50:06.750Z,66.79
2023-02-06T18:55:09.470Z,67.10
2023-02-06T19:00:14.712Z,66.63
2023-02-06T19:05:17.562Z,67.26
2023-02-06T19:10:21.117Z,66.90
2023-02-06T19:15:23.680Z,67.77
2023-02-06T19:20:26.112Z,66.48
2023-02-06T19:25:28.580Z,67.76
2023-02-06T19:30:31.030Z,67.34
2023-02-06T19:35:33.681Z,67.56
2023-02-06T19:40:37.217Z,67.64
2023-02-06T19:45:40.228Z,68.21
2023-02-06T19:50:43.966Z,68.09
2023-02-06T19:55:49.720Z,68.28
2023-02-06T20:00:55.099Z,68.94
2023-02-06T20:06:01.772Z,68.37
2023-02-06T20:11:08.710Z,69.67
2023-02-06T20:16:20.205Z,68.96
2023-02-06T20:21:31.563Z,68.82
2023-02-06T20:26:38.146Z,69.33
2023-02-06T20:31:42.223Z,68.93
2023-02-06T20:36:45.361Z,69.41
2023-02-06T20:41:49.609Z,69.01
2023-02-06T20:46:51.699Z,69.80
2023-02-06T20:51:54.568Z,69.67
2023-02-06T20:56:56.807Z,70.27
2023-02-06T21:01:59.225Z,69.68
2023-02-06T21:07:01.205Z,69.71
2023-02-06T21:12:03.261Z,70.45
2023-02-06T21:17:05.044Z,70.04
2023-02-06T21:22:06.796Z,70.62
2023-02-06T21:27:08.652Z,70.00
2023-02-06T21:32:13.885Z,70.00
2023-02-06T21:37:16.116Z,69.92
2023-02-06T21:42:20.578Z,70.37
2023-02-06T21:47:22.221Z,70.78
2023-02-06T21:52:23.907Z,69.75
2023-02-06T21:57:26.615Z,70.83
2023-02-06T22:02:28.354Z,69.75
2023-02-06T22:07:30.088Z,69.77
2023-02-06T22:12:32.099Z,70.89
2023-02-06T22:17:34.794Z,70.36
2023-02-06T22:22:37.481Z,69.82
2023-02-06T22:27:39.600Z,70.10
2023-02-06T22:32:41.279Z,69.93
2023-02-06T22:37:44.574Z,70.84
2023-02-06T22:42:46.318Z,70.22
2023-02-06T22:47:48.039Z,70.34
2023-02-06T22:53:08.168Z,69.70
2023-02-06T22:58:09.809Z,71.13
2023-02-06T23:03:11.460Z,70.88
2023-02-06T23:08:13.119Z,69.92
2023-02-06T23:13:14.832Z,70.96
2023-02-06T23:18:17.137Z,70.13
2023-02-06T23:23:18.738Z,71.08
2023-02-06T23:28:21.919Z,71.07
2023-02-06T23:33:23.933Z,70.44
2023-02-06T23:38:25.588Z,70.24
2023-02-06T23:43:27.234Z,70.21
2023-02-06T23:48:28.949Z,70.77
2023-02-06T23:53:30.921Z,69.38
2023-02-06T23:58:32.556Z,70.75
